createdAt,value
2019-05-29T00:00:53.160Z,89.40
2019-05-29T00:01:53.129Z,89.79
2019-05-29T00:02:53.106Z,89.60
2019-05-29T00:03:53.085Z,89.69
2019-05-29T00:04:53.058Z,88.93
2019-05-29T00:05:53.035Z,88.84
2019-05-29T00:06:53.011Z,89.22
2019-05-29T00:07:53.003Z,88.74
2019-05-29T00:08:52.963Z,88.64
2019-05-29T00:09:52.961Z,88.79
2019-05-29T00:10:52.916Z,89.17
2019-05-29T00:11:52.895Z,88.98
2019-05-29T00:12:52.869Z,88.79
2019-05-29T00:13:52.846Z,88.89
2019-05-29T00:14:52.823Z,89.94
2019-05-29T00:15:52.806Z,88.98
2019-05-29T00:16:52.775Z,88.60
2019-05-29T00:17:52.751Z,87.84
2019-05-29T00:18:52.727Z,86.98
2019-05-29T00:19:52.704Z,87.27
2019-05-29T00:20:52.691Z,86.98
2019-05-29T00:21:52.656Z,86.79
2019-05-29T00:22:52.634Z,86.22
2019-05-29T00:23:52.609Z,85.84
2019-05-29T00:24:52.584Z,87.07
2019-05-29T00:25:52.560Z,86.79
2019-05-29T00:26:52.536Z,86.41
2019-05-29T00:27:52.515Z,85.74
2019-05-29T00:28:52.489Z,84.92
2019-05-29T00:29:52.466Z,86.03
2019-05-29T00:30:52.445Z,86.98
2019-05-29T00:31:52.419Z,86.79
2019-05-29T00:32:52.397Z,87.27
2019-05-29T00:33:52.375Z,87.07
2019-05-29T00:34:52.347Z,86.51
2019-05-29T00:35:52.324Z,86.60
2019-05-29T00:36:52.299Z,86.22
2019-05-29T00:37:52.276Z,86.12
2019-05-29T00:38:52.252Z,85.84
2019-05-29T00:39:52.229Z,85.84
2019-05-29T00:40:52.203Z,85.93
2019-05-29T00:41:52.180Z,85.27
2019-05-29T00:42:52.156Z,85.08
2019-05-29T00:43:52.133Z,85.74
2019-05-29T00:44:52.108Z,86.60
2019-05-29T00:45:52.085Z,86.69
2019-05-29T00:46:52.911Z,86.32
2019-05-29T00:47:52.038Z,87.27
2019-05-29T00:48:52.017Z,86.22
2019-05-29T00:49:51.994Z,87.07
2019-05-29T00:50:51.965Z,87.65
2019-05-29T00:51:51.943Z,87.46
2019-05-29T00:52:51.916Z,86.98
2019-05-29T00:53:51.894Z,86.98
2019-05-29T00:54:51.870Z,87.17
2019-05-29T00:55:51.848Z,86.22
2019-05-29T00:56:51.822Z,86.79
2019-05-29T00:57:51.798Z,86.69
2019-05-29T00:58:51.775Z,87.55
2019-05-29T00:59:51.751Z,86.51
2019-05-29T01:00:51.730Z,86.79
2019-05-29T01:01:51.703Z,86.69
2019-05-29T01:02:51.694Z,86.60
2019-05-29T01:03:51.656Z,86.12
2019-05-29T01:04:51.632Z,86.41
2019-05-29T01:05:51.608Z,86.41
2019-05-29T01:06:51.584Z,87.27
2019-05-29T01:07:51.561Z,87.07
2019-05-29T01:08:51.536Z,86.22
2019-05-29T01:09:51.514Z,85.08
2019-05-29T01:10:51.489Z,85.08
2019-05-29T01:11:51.465Z,85.74
2019-05-29T01:12:51.469Z,86.60
2019-05-29T01:13:51.417Z,86.84
2019-05-29T01:14:51.395Z,86.65
2019-05-29T01:15:51.375Z,86.60
2019-05-29T01:16:51.345Z,85.46
2019-05-29T01:17:51.391Z,85.36
2019-05-29T01:18:51.298Z,86.79
2019-05-29T01:19:51.274Z,86.22
2019-05-29T01:20:51.250Z,85.27
2019-05-29T01:21:51.228Z,87.46
2019-05-29T01:22:51.274Z,86.98
2019-05-29T01:23:51.179Z,87.03
2019-05-29T01:24:51.154Z,87.55
2019-05-29T01:25:51.129Z,87.60
2019-05-29T01:26:51.108Z,87.84
2019-05-29T01:27:51.084Z,87.27
2019-05-29T01:28:51.058Z,87.46
2019-05-29T01:29:51.035Z,86.60
2019-05-29T01:30:51.667Z,87.07
2019-05-29T01:31:50.986Z,87.36
2019-05-29T01:32:50.965Z,87.55
2019-05-29T01:33:50.936Z,88.03
2019-05-29T01:34:52.424Z,87.79
2019-05-29T01:35:50.900Z,86.98
2019-05-29T01:36:50.864Z,86.98
2019-05-29T01:37:50.840Z,86.79
2019-05-29T01:38:50.817Z,86.60
2019-05-29T01:39:50.797Z,86.98
2019-05-29T01:40:50.768Z,86.60
2019-05-29T01:41:50.745Z,86.12
2019-05-29T01:42:50.723Z,86.03
2019-05-29T01:43:50.696Z,85.36
2019-05-29T01:45:06.439Z,86.69
2019-05-29T01:45:50.649Z,87.46
2019-05-29T01:46:50.624Z,88.03
2019-05-29T01:47:50.606Z,87.46
2019-05-29T01:48:50.575Z,87.27
2019-05-29T01:49:50.551Z,87.65
2019-05-29T01:50:50.527Z,88.03
2019-05-29T01:51:50.509Z,87.27
2019-05-29T01:52:50.477Z,87.07
2019-05-29T01:53:50.454Z,87.17
2019-05-29T01:54:50.430Z,86.79
2019-05-29T01:55:50.408Z,86.79
2019-05-29T01:56:50.385Z,86.88
2019-05-29T01:57:50.358Z,86.88
2019-05-29T01:58:50.335Z,86.51
2019-05-29T01:59:50.311Z,87.07
2019-05-29T02:00:50.291Z,87.74
2019-05-29T02:01:50.265Z,87.55
2019-05-29T02:02:50.238Z,86.79
2019-05-29T02:03:50.214Z,86.98
2019-05-29T02:04:50.190Z,86.79
2019-05-29T02:05:50.166Z,87.07
2019-05-29T02:06:50.140Z,86.69
2019-05-29T02:07:50.119Z,86.69
2019-05-29T02:08:50.093Z,86.51
2019-05-29T02:09:50.070Z,87.12
2019-05-29T02:10:50.046Z,86.79
2019-05-29T02:11:50.082Z,86.98
2019-05-29T02:12:49.998Z,87.65
2019-05-29T02:13:49.974Z,86.51
2019-05-29T02:14:49.950Z,87.17
2019-05-29T02:15:49.926Z,87.17
2019-05-29T02:16:49.910Z,86.88
2019-05-29T02:17:50.633Z,86.60
2019-05-29T02:18:49.854Z,86.41
2019-05-29T02:19:49.831Z,87.17
2019-05-29T02:20:49.806Z,86.03
2019-05-29T02:21:49.782Z,85.93
2019-05-29T02:22:49.759Z,85.31
2019-05-29T02:23:49.735Z,86.22
2019-05-29T02:24:49.710Z,86.22
2019-05-29T02:25:49.686Z,85.64
2019-05-29T02:26:49.663Z,85.46
2019-05-29T02:27:49.640Z,85.17
2019-05-29T02:28:49.614Z,85.36
2019-05-29T02:29:49.591Z,85.31
2019-05-29T02:30:49.567Z,85.12
2019-05-29T02:31:49.545Z,86.12
2019-05-29T02:32:49.521Z,87.07
2019-05-29T02:33:50.246Z,87.27
2019-05-29T02:34:49.472Z,87.65
2019-05-29T02:35:49.448Z,86.88
2019-05-29T02:36:49.430Z,86.60
2019-05-29T02:37:49.425Z,86.79
2019-05-29T02:38:49.377Z,86.79
2019-05-29T02:39:49.365Z,86.60
2019-05-29T02:40:49.332Z,86.12
2019-05-29T02:41:49.304Z,86.22
2019-05-29T02:42:49.282Z,86.03
2019-05-29T02:43:49.259Z,86.51
2019-05-29T02:44:49.231Z,86.03
2019-05-29T02:45:54.193Z,86.12
2019-05-29T02:46:49.191Z,86.93
2019-05-29T02:47:49.161Z,86.69
2019-05-29T02:48:49.136Z,86.41
2019-05-29T02:49:49.112Z,86.16
2019-05-29T02:50:49.090Z,86.26
2019-05-29T02:51:49.071Z,85.97
2019-05-29T02:52:49.044Z,86.51
2019-05-29T02:53:49.017Z,86.36
2019-05-29T02:54:48.992Z,86.07
2019-05-29T02:55:49.721Z,86.07
2019-05-29T02:56:48.951Z,85.88
2019-05-29T02:57:48.920Z,86.36
2019-05-29T02:58:48.899Z,85.97
2019-05-29T02:59:48.873Z,85.88
2019-05-29T03:00:48.850Z,85.88
2019-05-29T03:01:48.825Z,85.60
2019-05-29T03:02:48.802Z,85.97
2019-05-29T03:03:48.777Z,86.55
2019-05-29T03:04:48.756Z,86.60
2019-05-29T03:05:48.730Z,86.36
2019-05-29T03:06:49.467Z,86.32
2019-05-29T03:07:48.686Z,87.12
2019-05-29T03:08:48.658Z,86.69
2019-05-29T03:09:48.634Z,86.88
2019-05-29T03:10:48.613Z,86.98
2019-05-29T03:11:48.589Z,86.60
2019-05-29T03:12:48.563Z,87.74
2019-05-29T03:13:48.539Z,87.36
2019-05-29T03:14:48.517Z,87.27
2019-05-29T03:16:05.742Z,86.51
2019-05-29T03:16:48.469Z,87.46
2019-05-29T03:17:48.444Z,88.60
2019-05-29T03:18:48.420Z,88.03
2019-05-29T03:19:48.396Z,88.41
2019-05-29T03:20:48.372Z,88.22
2019-05-29T03:21:48.350Z,88.12
2019-05-29T03:22:48.325Z,87.65
2019-05-29T03:23:48.302Z,88.03
2019-05-29T03:24:48.320Z,88.03
2019-05-29T03:25:48.252Z,87.55
2019-05-29T03:26:48.229Z,87.36
2019-05-29T03:27:48.204Z,86.41
2019-05-29T03:28:48.180Z,86.69
2019-05-29T03:29:48.177Z,87.40
2019-05-29T03:30:48.151Z,87.27
2019-05-29T03:31:48.809Z,88.22
2019-05-29T03:32:49.082Z,87.65
2019-05-29T03:33:50.305Z,87.74
2019-05-29T03:34:48.399Z,87.17
2019-05-29T03:35:48.811Z,87.79
2019-05-29T03:36:49.012Z,86.69
2019-05-29T03:37:47.964Z,87.60
2019-05-29T03:38:47.939Z,87.55
2019-05-29T03:39:47.916Z,87.31
2019-05-29T03:40:47.891Z,87.84
2019-05-29T03:41:47.869Z,87.50
2019-05-29T03:42:47.845Z,87.69
2019-05-29T03:43:47.821Z,88.51
2019-05-29T03:44:47.796Z,88.12
2019-05-29T03:45:47.775Z,88.17
2019-05-29T03:46:47.750Z,88.31
2019-05-29T03:47:47.725Z,88.41
2019-05-29T03:48:47.701Z,88.51
2019-05-29T03:49:47.677Z,87.98
2019-05-29T03:50:47.655Z,87.98
2019-05-29T03:51:47.629Z,87.79
2019-05-29T03:52:47.609Z,87.21
2019-05-29T03:53:47.585Z,87.21
2019-05-29T03:54:48.317Z,88.36
2019-05-29T03:55:47.533Z,88.74
2019-05-29T03:56:47.509Z,88.98
2019-05-29T03:57:47.485Z,89.75
2019-05-29T03:58:47.465Z,90.31
2019-05-29T03:59:47.437Z,88.89
2019-05-29T04:00:48.951Z,88.60
2019-05-29T04:01:47.388Z,88.70
2019-05-29T04:02:47.390Z,88.79
2019-05-29T04:03:47.342Z,89.36
2019-05-29T04:04:47.316Z,88.60
2019-05-29T04:05:47.294Z,88.60
2019-05-29T04:06:47.672Z,89.26
2019-05-29T04:07:47.247Z,89.46
2019-05-29T04:08:47.220Z,88.79
2019-05-29T04:09:47.201Z,88.98
2019-05-29T04:10:47.182Z,90.22
2019-05-29T04:11:47.150Z,89.65
2019-05-29T04:12:47.125Z,89.36
2019-05-29T04:13:47.101Z,89.84
2019-05-29T04:14:47.079Z,88.64
2019-05-29T04:15:47.054Z,88.84
2019-05-29T04:16:58.983Z,89.31
2019-05-29T04:17:47.004Z,88.64
2019-05-29T04:18:46.981Z,90.64
2019-05-29T04:19:46.956Z,89.40
2019-05-29T04:20:46.933Z,89.40
2019-05-29T04:21:46.911Z,90.45
2019-05-29T04:22:46.884Z,90.36
2019-05-29T04:23:46.867Z,89.40
2019-05-29T04:24:46.837Z,89.31
2019-05-29T04:25:46.812Z,89.31
2019-05-29T04:26:46.787Z,88.93
2019-05-29T04:27:46.765Z,88.84
2019-05-29T04:28:46.745Z,89.22
2019-05-29T04:29:46.716Z,89.60
2019-05-29T04:30:46.694Z,89.50
2019-05-29T04:31:47.420Z,89.50
2019-05-29T04:32:46.644Z,89.50
2019-05-29T04:33:46.621Z,89.60
2019-05-29T04:34:46.598Z,89.60
2019-05-29T04:35:46.573Z,89.79
2019-05-29T04:36:46.549Z,89.50
2019-05-29T04:37:46.527Z,89.69
2019-05-29T04:38:46.504Z,90.17
2019-05-29T04:39:46.477Z,89.60
2019-05-29T04:40:46.454Z,90.74
2019-05-29T04:41:46.430Z,90.84
2019-05-29T04:42:46.405Z,90.84
2019-05-29T04:43:46.386Z,89.98
2019-05-29T04:44:46.358Z,89.50
2019-05-29T04:45:46.335Z,90.64
2019-05-29T04:46:46.312Z,90.69
2019-05-29T04:47:46.289Z,90.64
2019-05-29T04:48:46.264Z,90.69
2019-05-29T04:49:46.239Z,90.79
2019-05-29T04:50:46.222Z,92.60
2019-05-29T04:51:46.195Z,93.70
2019-05-29T04:52:46.169Z,92.93
2019-05-29T04:53:46.145Z,91.60
2019-05-29T04:54:46.122Z,90.45
2019-05-29T04:55:46.098Z,90.36
2019-05-29T04:56:46.074Z,90.26
2019-05-29T04:57:46.050Z,88.59
2019-05-29T04:58:46.026Z,89.26
2019-05-29T04:59:46.002Z,89.93
2019-05-29T05:00:58.644Z,89.74
2019-05-29T05:01:45.958Z,89.64
2019-05-29T05:02:45.933Z,88.98
2019-05-29T05:03:45.916Z,89.64
2019-05-29T05:04:45.885Z,90.03
2019-05-29T05:05:45.863Z,90.31
2019-05-29T05:06:45.837Z,89.93
2019-05-29T05:07:45.819Z,89.54
2019-05-29T05:08:45.799Z,89.45
2019-05-29T05:09:45.768Z,94.32
2019-05-29T05:10:45.748Z,95.12
2019-05-29T05:11:45.728Z,93.55
2019-05-29T05:12:45.718Z,93.27
2019-05-29T05:13:45.674Z,91.93
2019-05-29T05:14:45.650Z,92.12
2019-05-29T05:15:45.632Z,92.79
2019-05-29T05:16:45.604Z,94.70
2019-05-29T05:17:45.581Z,94.22
2019-05-29T05:18:45.558Z,94.70
2019-05-29T05:19:45.535Z,93.55
2019-05-29T05:20:45.510Z,93.46
2019-05-29T05:21:45.489Z,95.94
2019-05-29T05:22:45.470Z,95.84
2019-05-29T05:23:45.441Z,96.70
2019-05-29T05:24:47.668Z,97.51
2019-05-29T05:25:45.394Z,95.32
2019-05-29T05:26:45.374Z,94.22
2019-05-29T05:27:45.350Z,94.12
2019-05-29T05:28:46.396Z,94.51
2019-05-29T05:29:45.303Z,97.37
2019-05-29T05:30:45.279Z,96.32
2019-05-29T05:31:45.257Z,94.70
2019-05-29T05:32:45.234Z,94.70
2019-05-29T05:33:45.209Z,96.70
2019-05-29T05:34:45.186Z,96.03
2019-05-29T05:35:45.164Z,98.03
2019-05-29T05:36:45.139Z,97.66
2019-05-29T05:37:45.118Z,96.98
2019-05-29T05:38:45.092Z,98.08
2019-05-29T05:39:45.071Z,96.36
2019-05-29T05:40:45.046Z,95.65
2019-05-29T05:41:45.023Z,95.75
2019-05-29T05:42:45.000Z,95.75
2019-05-29T05:43:44.977Z,96.03
2019-05-29T05:44:44.955Z,94.89
2019-05-29T05:45:44.930Z,95.46
2019-05-29T05:46:45.658Z,97.27
2019-05-29T05:47:56.957Z,96.41
2019-05-29T05:48:44.860Z,97.08
2019-05-29T05:49:44.841Z,97.61
2019-05-29T05:50:44.814Z,96.32
2019-05-29T05:51:44.866Z,94.51
2019-05-29T05:52:44.767Z,96.70
2019-05-29T05:53:44.744Z,96.22
2019-05-29T05:54:44.721Z,95.75
2019-05-29T05:55:44.698Z,94.70
2019-05-29T05:56:44.674Z,96.22
2019-05-29T05:57:46.903Z,97.46
2019-05-29T05:58:44.628Z,96.89
2019-05-29T05:59:44.609Z,96.51
2019-05-29T06:00:44.581Z,97.94
2019-05-29T06:01:44.559Z,97.46
2019-05-29T06:02:44.538Z,96.98
2019-05-29T06:03:45.264Z,96.22
2019-05-29T06:04:44.489Z,95.84
2019-05-29T06:05:44.466Z,97.46
2019-05-29T06:06:44.445Z,97.75
2019-05-29T06:07:44.420Z,97.56
2019-05-29T06:08:44.396Z,96.13
2019-05-29T06:09:44.381Z,96.89
2019-05-29T06:10:44.350Z,96.22
2019-05-29T06:11:44.327Z,96.03
2019-05-29T06:12:44.303Z,95.65
2019-05-29T06:13:44.281Z,96.89
2019-05-29T06:14:44.257Z,98.03
2019-05-29T06:15:44.233Z,97.08
2019-05-29T06:16:44.213Z,97.75
2019-05-29T06:18:04.640Z,95.94
2019-05-29T06:18:44.163Z,96.51
2019-05-29T06:19:44.152Z,96.32
2019-05-29T06:20:44.126Z,96.41
2019-05-29T06:21:44.093Z,98.13
2019-05-29T06:22:44.069Z,97.56
2019-05-29T06:23:44.051Z,98.61
2019-05-29T06:24:44.028Z,97.46
2019-05-29T06:25:44.006Z,98.22
2019-05-29T06:26:43.978Z,98.03
2019-05-29T06:27:43.955Z,97.46
2019-05-29T06:28:43.932Z,98.51
2019-05-29T06:29:43.908Z,98.03
2019-05-29T06:30:45.089Z,98.22
2019-05-29T06:31:43.884Z,97.46
2019-05-29T06:32:43.836Z,96.98
2019-05-29T06:33:44.206Z,98.22
2019-05-29T06:34:43.949Z,99.18
2019-05-29T06:35:43.895Z,97.94
2019-05-29T06:36:43.979Z,98.22
2019-05-29T06:37:43.860Z,98.22
2019-05-29T06:38:44.242Z,98.61
2019-05-29T06:39:43.966Z,98.75
2019-05-29T06:40:44.027Z,98.70
2019-05-29T06:41:44.336Z,98.51
2019-05-29T06:42:43.962Z,98.22
2019-05-29T06:43:44.432Z,97.32
2019-05-29T06:44:44.961Z,99.04
2019-05-29T06:45:44.107Z,99.32
2019-05-29T06:46:45.297Z,99.99
2019-05-29T06:47:44.589Z,99.99
2019-05-29T06:48:57.584Z,99.13
2019-05-29T06:49:44.348Z,99.99
2019-05-29T06:50:45.673Z,98.75
2019-05-29T06:51:43.499Z,98.75
2019-05-29T06:52:43.639Z,98.85
2019-05-29T06:53:43.906Z,98.18
2019-05-29T06:54:44.112Z,99.99
2019-05-29T06:55:44.053Z,99.80
2019-05-29T06:56:44.031Z,99.99
2019-05-29T06:57:44.496Z,99.61
2019-05-29T06:58:44.324Z,99.99
2019-05-29T06:59:44.606Z,99.90
2019-05-29T07:00:43.201Z,99.99
2019-05-29T07:01:43.513Z,99.42
2019-05-29T07:02:43.153Z,99.99
2019-05-29T07:03:43.967Z,99.90
2019-05-29T07:04:43.096Z,99.99
2019-05-29T07:05:46.946Z,99.52
2019-05-29T07:06:43.051Z,98.37
2019-05-29T07:07:44.393Z,99.61
2019-05-29T07:08:47.325Z,99.99
2019-05-29T07:09:43.089Z,99.99
2019-05-29T07:10:44.476Z,99.13
2019-05-29T07:11:43.483Z,99.99
2019-05-29T07:12:44.507Z,99.99
2019-05-29T07:13:45.944Z,99.99
2019-05-29T07:14:42.867Z,99.99
2019-05-29T07:15:43.064Z,99.99
2019-05-29T07:16:49.575Z,99.99
2019-05-29T07:17:42.799Z,99.99
2019-05-29T07:19:22.043Z,99.80
2019-05-29T07:19:55.146Z,99.99
2019-05-29T07:20:42.776Z,99.99
2019-05-29T07:21:42.887Z,99.99
2019-05-29T07:22:43.060Z,99.99
2019-05-29T07:23:45.118Z,99.99
2019-05-29T07:24:43.446Z,99.99
2019-05-29T07:25:42.973Z,99.99
2019-05-29T07:26:43.592Z,99.99
2019-05-29T07:27:42.886Z,99.99
2019-05-29T07:29:02.013Z,99.99
2019-05-29T07:29:43.474Z,99.99
2019-05-29T07:30:47.284Z,99.99
2019-05-29T07:31:42.986Z,99.99
2019-05-29T07:32:44.903Z,99.99
2019-05-29T07:33:43.247Z,99.99
2019-05-29T07:35:01.439Z,99.99
2019-05-29T07:35:43.534Z,99.99
2019-05-29T07:36:43.903Z,99.99
2019-05-29T07:37:43.720Z,99.99
2019-05-29T07:38:48.878Z,99.99
2019-05-29T07:39:43.535Z,99.99
2019-05-29T07:40:42.716Z,99.99
2019-05-29T07:41:42.263Z,99.99
2019-05-29T07:42:49.788Z,99.99
2019-05-29T07:43:42.220Z,99.99
2019-05-29T07:44:42.223Z,99.99
2019-05-29T07:45:42.261Z,99.99
2019-05-29T07:46:42.339Z,99.99
2019-05-29T07:47:42.770Z,99.99
2019-05-29T07:48:42.704Z,99.99
2019-05-29T07:49:44.829Z,99.99
2019-05-29T07:50:42.229Z,99.99
2019-05-29T07:51:43.408Z,99.99
2019-05-29T07:52:43.288Z,99.99
2019-05-29T07:53:42.303Z,99.99
2019-05-29T07:54:42.000Z,99.99
2019-05-29T07:55:42.617Z,99.99
2019-05-29T07:56:42.480Z,99.99
2019-05-29T07:57:42.813Z,99.99
2019-05-29T07:58:49.101Z,99.99
2019-05-29T07:59:42.678Z,99.99
2019-05-29T08:01:08.151Z,99.99
2019-05-29T08:01:42.886Z,99.99
2019-05-29T08:02:43.210Z,99.99
2019-05-29T08:03:43.295Z,99.99
2019-05-29T08:04:42.940Z,99.99
2019-05-29T08:05:46.040Z,99.99
2019-05-29T08:06:48.290Z,99.99
2019-05-29T08:07:41.704Z,99.99
2019-05-29T08:08:41.679Z,99.99
2019-05-29T08:09:41.656Z,99.99
2019-05-29T08:10:41.830Z,99.99
2019-05-29T08:11:41.615Z,99.99
2019-05-29T08:12:45.888Z,99.99
2019-05-29T08:13:41.604Z,99.99
2019-05-29T08:14:41.851Z,99.99
2019-05-29T08:15:54.978Z,99.99
2019-05-29T08:16:41.953Z,99.99
2019-05-29T08:17:42.080Z,99.99
2019-05-29T08:18:45.411Z,99.99
2019-05-29T08:19:57.031Z,99.99
2019-05-29T08:20:41.876Z,99.99
2019-05-29T08:21:42.716Z,99.99
2019-05-29T08:22:42.378Z,99.99
2019-05-29T08:23:42.263Z,99.99
2019-05-29T08:24:42.624Z,99.99
2019-05-29T08:25:41.450Z,99.99
2019-05-29T08:26:42.754Z,99.99
2019-05-29T08:27:42.516Z,99.99
2019-05-29T08:28:42.706Z,99.99
2019-05-29T08:29:42.511Z,99.99
2019-05-29T08:30:46.262Z,99.99
2019-05-29T08:31:41.192Z,99.99
2019-05-29T08:32:41.167Z,99.99
2019-05-29T08:33:41.146Z,99.99
2019-05-29T08:34:41.127Z,99.99
2019-05-29T08:35:41.525Z,99.99
2019-05-29T08:36:55.790Z,99.99
2019-05-29T08:37:41.066Z,99.99
2019-05-29T08:38:43.807Z,99.99
2019-05-29T08:39:41.230Z,99.99
2019-05-29T08:40:41.100Z,99.99
2019-05-29T08:41:45.513Z,99.99
2019-05-29T08:42:41.139Z,99.99
2019-05-29T08:43:45.270Z,99.99
2019-05-29T08:44:41.298Z,99.99
2019-05-29T08:45:41.524Z,99.99
2019-05-29T08:46:41.706Z,99.99
2019-05-29T08:47:41.497Z,99.99
2019-05-29T08:48:41.797Z,99.99
2019-05-29T08:49:41.787Z,99.99
2019-05-29T08:50:41.520Z,99.99
2019-05-29T08:51:41.807Z,99.99
2019-05-29T08:52:41.787Z,99.99
2019-05-29T08:53:42.428Z,99.99
2019-05-29T08:54:41.958Z,99.99
2019-05-29T08:55:41.977Z,99.99
2019-05-29T08:56:41.985Z,99.99
2019-05-29T08:57:40.651Z,99.99
2019-05-29T08:58:40.654Z,99.99
2019-05-29T08:59:40.612Z,99.99
2019-05-29T09:00:40.590Z,99.99
2019-05-29T09:01:40.590Z,99.99
2019-05-29T09:02:40.554Z,99.99
2019-05-29T09:03:40.533Z,99.99
2019-05-29T09:04:40.507Z,99.99
2019-05-29T09:05:40.488Z,99.99
2019-05-29T09:06:40.467Z,99.99
2019-05-29T09:07:40.446Z,99.99
2019-05-29T09:08:40.429Z,99.99
2019-05-29T09:09:40.405Z,99.99
2019-05-29T09:10:40.385Z,99.99
2019-05-29T09:11:40.366Z,99.99
2019-05-29T09:12:40.348Z,99.99
2019-05-29T09:13:40.326Z,99.99
2019-05-29T09:14:40.324Z,99.99
2019-05-29T09:15:40.283Z,99.99
2019-05-29T09:16:40.264Z,99.99
2019-05-29T09:17:40.242Z,99.99
2019-05-29T09:18:40.224Z,99.99
2019-05-29T09:19:40.201Z,99.99
2019-05-29T09:21:00.930Z,99.99
2019-05-29T09:21:40.160Z,99.99
2019-05-29T09:22:40.140Z,99.99
2019-05-29T09:23:40.121Z,99.99
2019-05-29T09:24:40.097Z,99.99
2019-05-29T09:25:40.078Z,99.99
2019-05-29T09:26:40.058Z,99.99
2019-05-29T09:27:40.037Z,99.99
2019-05-29T09:28:40.017Z,99.99
2019-05-29T09:29:39.995Z,99.99
2019-05-29T09:30:39.975Z,99.99
2019-05-29T09:31:39.955Z,99.99
2019-05-29T09:32:50.441Z,99.99
2019-05-29T09:33:39.915Z,99.99
2019-05-29T09:34:39.907Z,99.99
2019-05-29T09:35:39.871Z,99.99
2019-05-29T09:36:39.854Z,99.99
2019-05-29T09:37:39.829Z,99.99
2019-05-29T09:38:39.809Z,99.99
2019-05-29T09:39:39.788Z,99.99
2019-05-29T09:40:39.773Z,99.99
2019-05-29T09:41:39.746Z,99.99
2019-05-29T09:42:39.726Z,99.99
2019-05-29T09:43:55.232Z,99.99
2019-05-29T09:44:40.207Z,99.99
2019-05-29T09:45:39.661Z,99.99
2019-05-29T09:46:39.643Z,99.99
2019-05-29T09:47:39.621Z,99.99
2019-05-29T09:48:49.178Z,99.99
2019-05-29T09:49:39.583Z,99.99
2019-05-29T09:50:49.950Z,99.99
2019-05-29T09:51:39.537Z,99.99
2019-05-29T09:52:39.523Z,99.99
2019-05-29T09:53:39.497Z,99.99
2019-05-29T09:54:39.481Z,99.99
2019-05-29T09:55:39.459Z,99.99
2019-05-29T09:56:39.435Z,99.99
2019-05-29T09:57:39.414Z,99.99
2019-05-29T09:58:39.395Z,99.99
2019-05-29T09:59:39.374Z,99.99
2019-05-29T10:00:39.351Z,99.99
2019-05-29T10:01:39.335Z,99.99
2019-05-29T10:02:39.311Z,99.99
2019-05-29T10:03:39.295Z,99.99
2019-05-29T10:04:39.270Z,99.99
2019-05-29T10:05:39.250Z,99.99
2019-05-29T10:06:39.228Z,99.99
2019-05-29T10:07:39.208Z,99.99
2019-05-29T10:08:39.185Z,99.99
2019-05-29T10:09:39.168Z,99.99
2019-05-29T10:10:39.145Z,99.99
2019-05-29T10:11:39.123Z,99.99
2019-05-29T10:12:39.104Z,99.99
2019-05-29T10:13:39.082Z,99.99
2019-05-29T10:14:39.062Z,99.99
2019-05-29T10:15:39.048Z,99.99
2019-05-29T10:16:39.019Z,99.99
2019-05-29T10:17:38.997Z,99.99
2019-05-29T10:18:38.976Z,99.99
2019-05-29T10:19:38.961Z,99.99
2019-05-29T10:20:38.934Z,99.99
2019-05-29T10:21:41.035Z,99.99
2019-05-29T10:22:38.889Z,99.99
2019-05-29T10:23:38.868Z,99.99
2019-05-29T10:24:38.849Z,99.99
2019-05-29T10:25:40.326Z,99.99
2019-05-29T10:26:38.822Z,99.99
2019-05-29T10:27:38.787Z,99.99
2019-05-29T10:28:56.079Z,99.99
2019-05-29T10:29:38.738Z,99.99
2019-05-29T10:30:38.716Z,99.99
2019-05-29T10:31:42.112Z,99.99
2019-05-29T10:32:38.674Z,99.99
2019-05-29T10:33:38.649Z,99.99
2019-05-29T10:34:38.630Z,99.99
2019-05-29T10:35:38.605Z,99.99
2019-05-29T10:36:38.582Z,99.99
2019-05-29T10:37:38.575Z,99.99
2019-05-29T10:38:38.538Z,99.99
2019-05-29T10:39:38.517Z,99.99
2019-05-29T10:40:38.494Z,99.99
2019-05-29T10:41:38.478Z,99.19
2019-05-29T10:42:38.452Z,99.99
2019-05-29T10:43:38.429Z,99.99
2019-05-29T10:44:38.406Z,99.99
2019-05-29T10:45:38.389Z,99.99
2019-05-29T10:46:38.367Z,99.99
2019-05-29T10:47:38.345Z,99.99
2019-05-29T10:48:38.330Z,99.99
2019-05-29T10:49:38.299Z,98.81
2019-05-29T10:50:38.276Z,99.10
2019-05-29T10:51:47.861Z,99.96
2019-05-29T10:52:38.233Z,99.29
2019-05-29T10:53:38.213Z,99.99
2019-05-29T10:54:39.325Z,99.99
2019-05-29T10:55:38.170Z,99.99
2019-05-29T10:56:38.153Z,99.99
2019-05-29T10:57:38.129Z,99.99
2019-05-29T10:58:48.419Z,99.99
2019-05-29T10:59:38.086Z,99.99
2019-05-29T11:00:39.215Z,99.99
2019-05-29T11:01:38.046Z,99.99
2019-05-29T11:02:38.026Z,99.99
2019-05-29T11:03:38.754Z,99.99
2019-05-29T11:04:38.084Z,99.99
2019-05-29T11:05:37.966Z,99.99
2019-05-29T11:06:40.861Z,99.99
2019-05-29T11:07:37.924Z,99.99
2019-05-29T11:08:37.905Z,99.99
2019-05-29T11:09:44.581Z,99.99
2019-05-29T11:10:37.866Z,99.99
2019-05-29T11:11:37.846Z,99.99
2019-05-29T11:12:39.547Z,99.99
2019-05-29T11:13:37.806Z,99.99
2019-05-29T11:14:42.291Z,99.99
2019-05-29T11:15:37.768Z,99.99
2019-05-29T11:16:39.831Z,99.99
2019-05-29T11:17:37.729Z,99.99
2019-05-29T11:18:37.710Z,99.99
2019-05-29T11:19:37.692Z,99.99
2019-05-29T11:20:37.677Z,99.99
2019-05-29T11:21:37.667Z,99.99
2019-05-29T11:22:37.636Z,99.99
2019-05-29T11:23:37.618Z,99.99
2019-05-29T11:24:37.601Z,99.99
2019-05-29T11:25:37.580Z,99.99
2019-05-29T11:26:37.562Z,99.99
2019-05-29T11:27:37.545Z,99.99
2019-05-29T11:28:37.526Z,99.99
2019-05-29T11:29:37.508Z,99.99
2019-05-29T11:30:37.491Z,99.99
2019-05-29T11:31:43.478Z,99.99
2019-05-29T11:32:37.453Z,99.99
2019-05-29T11:33:37.435Z,99.99
2019-05-29T11:34:37.418Z,99.99
2019-05-29T11:35:37.400Z,99.99
2019-05-29T11:36:37.385Z,99.99
2019-05-29T11:37:38.865Z,99.99
2019-05-29T11:38:37.344Z,99.99
2019-05-29T11:39:37.326Z,99.99
2019-05-29T11:40:37.759Z,99.99
2019-05-29T11:41:37.289Z,99.99
2019-05-29T11:42:37.271Z,99.99
2019-05-29T11:43:38.006Z,99.99
2019-05-29T11:44:37.242Z,99.99
2019-05-29T11:45:37.264Z,99.99
2019-05-29T11:46:37.198Z,99.99
2019-05-29T11:47:37.181Z,99.99
2019-05-29T11:48:37.162Z,99.99
2019-05-29T11:49:37.145Z,99.99
2019-05-29T11:50:37.125Z,99.99
2019-05-29T11:51:37.167Z,99.99
2019-05-29T11:52:42.878Z,99.99
2019-05-29T11:53:37.077Z,99.99
2019-05-29T11:54:37.054Z,99.99
2019-05-29T11:55:37.036Z,99.99
2019-05-29T11:56:37.017Z,99.99
2019-05-29T11:57:39.617Z,99.99
2019-05-29T11:58:36.978Z,99.99
2019-05-29T11:59:37.709Z,99.99
2019-05-29T12:00:36.938Z,99.99
2019-05-29T12:01:49.568Z,99.99
2019-05-29T12:02:36.904Z,99.99
2019-05-29T12:03:36.883Z,99.29
2019-05-29T12:04:36.863Z,96.70
2019-05-29T12:05:36.843Z,99.99
2019-05-29T12:06:36.826Z,99.99
2019-05-29T12:07:36.810Z,99.99
2019-05-29T12:08:36.785Z,99.99
2019-05-29T12:09:36.861Z,99.29
2019-05-29T12:10:37.500Z,99.99
2019-05-29T12:11:36.739Z,99.99
2019-05-29T12:12:36.726Z,99.99
2019-05-29T12:13:36.699Z,99.53
2019-05-29T12:14:58.283Z,99.99
2019-05-29T12:15:36.649Z,99.77
2019-05-29T12:16:36.637Z,99.99
2019-05-29T12:17:36.753Z,98.29
2019-05-29T12:18:36.590Z,99.54
2019-05-29T12:19:36.577Z,93.54
2019-05-29T12:20:36.553Z,95.07
2019-05-29T12:21:36.530Z,96.27
2019-05-29T12:22:36.518Z,91.62
2019-05-29T12:23:36.491Z,88.65
2019-05-29T12:24:36.472Z,84.77
2019-05-29T12:25:36.452Z,91.00
2019-05-29T12:26:36.437Z,87.16
2019-05-29T12:27:36.417Z,88.17
2019-05-29T12:28:36.394Z,93.44
2019-05-29T12:29:36.375Z,94.01
2019-05-29T12:30:36.361Z,93.87
2019-05-29T12:31:36.346Z,90.12
2019-05-29T12:32:36.321Z,84.84
2019-05-29T12:33:36.304Z,89.16
2019-05-29T12:34:36.289Z,85.66
2019-05-29T12:35:36.262Z,83.18
2019-05-29T12:36:36.243Z,84.52
2019-05-29T12:37:37.727Z,85.28
2019-05-29T12:38:36.207Z,85.53
2019-05-29T12:39:36.188Z,85.63
2019-05-29T12:40:36.182Z,85.15
2019-05-29T12:41:36.262Z,85.15
2019-05-29T12:42:36.134Z,85.05
2019-05-29T12:43:36.115Z,83.81
2019-05-29T12:44:36.102Z,84.38
2019-05-29T12:45:36.082Z,85.92
2019-05-29T12:46:36.060Z,86.64
2019-05-29T12:47:36.041Z,85.92
2019-05-29T12:48:36.022Z,83.91
2019-05-29T12:49:36.007Z,85.58
2019-05-29T12:50:35.985Z,87.02
2019-05-29T12:51:35.971Z,89.23
2019-05-29T12:52:35.947Z,92.73